createdAt,value
2023-06-11T00:00:19.151Z,16.36
2023-06-11T00:03:24.346Z,16.52
2023-06-11T00:06:33.897Z,16.11
2023-06-11T00:09:39.043Z,16.13
2023-06-11T00:12:44.094Z,16.19
2023-06-11T00:15:49.269Z,16.07
2023-06-11T00:18:57.893Z,16.21
2023-06-11T00:22:06.491Z,16.23
2023-06-11T00:25:13.884Z,15.94
2023-06-11T00:28:19.170Z,16.38
2023-06-11T00:31:24.344Z,15.92
2023-06-11T00:34:29.426Z,15.69
2023-06-11T00:37:37.434Z,15.91
2023-06-11T00:40:42.498Z,16.48
2023-06-11T00:43:50.248Z,16.52
2023-06-11T00:46:57.610Z,17.11
2023-06-11T00:50:03.725Z,16.42
2023-06-11T00:53:11.584Z,16.55
2023-06-11T00:56:18.645Z,16.17
2023-06-11T00:59:26.430Z,16.46
2023-06-11T01:02:37.471Z,17.30
2023-06-11T01:05:46.864Z,15.90
2023-06-11T01:08:59.796Z,16.92
2023-06-11T01:12:14.560Z,16.00
2023-06-11T01:15:20.217Z,16.67
2023-06-11T01:18:30.187Z,15.90
2023-06-11T01:21:37.263Z,16.26
2023-06-11T01:25:00.389Z,16.47
2023-06-11T01:28:12.900Z,16.06
2023-06-11T01:31:18.625Z,16.23
2023-06-11T01:34:26.648Z,15.74
2023-06-11T01:37:34.262Z,15.57
2023-06-11T01:40:39.941Z,16.36
2023-06-11T01:43:50.203Z,15.88
2023-06-11T01:46:55.343Z,15.49
2023-06-11T01:50:02.187Z,16.54
2023-06-11T01:53:07.255Z,17.03
2023-06-11T01:56:12.644Z,16.84
2023-06-11T01:59:22.373Z,16.31
2023-06-11T02:02:27.715Z,16.88
2023-06-11T02:05:34.464Z,16.11
2023-06-11T02:08:39.539Z,16.19
2023-06-11T02:11:44.744Z,16.18
2023-06-11T02:14:52.430Z,16.03
2023-06-11T02:17:57.590Z,16.13
2023-06-11T02:21:02.698Z,15.90
2023-06-11T02:24:08.380Z,15.65
2023-06-11T02:27:13.644Z,15.69
2023-06-11T02:30:21.913Z,15.64
2023-06-11T02:33:27.021Z,16.53
2023-06-11T02:36:32.120Z,16.30
2023-06-11T02:39:37.813Z,15.87
2023-06-11T02:42:42.882Z,16.21
2023-06-11T02:45:50.628Z,15.59
2023-06-11T02:48:56.991Z,15.60
2023-06-11T02:52:02.083Z,16.18
2023-06-11T02:55:08.388Z,15.83
2023-06-11T02:58:13.696Z,15.66
2023-06-11T03:01:21.489Z,16.08
2023-06-11T03:04:26.790Z,15.91
2023-06-11T03:07:32.244Z,15.05
2023-06-11T03:10:37.363Z,15.91
2023-06-11T03:13:42.456Z,15.87
2023-06-11T03:16:50.190Z,15.55
2023-06-11T03:19:55.337Z,14.62
2023-06-11T03:23:00.509Z,14.74
2023-06-11T03:26:05.665Z,15.38
2023-06-11T03:29:16.852Z,14.94
2023-06-11T03:32:29.793Z,15.45
2023-06-11T03:35:35.314Z,15.18
2023-06-11T03:38:49.427Z,15.32
2023-06-11T03:41:57.817Z,15.39
2023-06-11T03:45:05.939Z,15.56
2023-06-11T03:48:13.774Z,15.33
2023-06-11T03:51:19.647Z,15.01
2023-06-11T03:54:24.848Z,15.46
2023-06-11T03:57:29.908Z,15.22
2023-06-11T04:00:35.083Z,15.86
2023-06-11T04:03:43.129Z,16.11
2023-06-11T04:06:48.677Z,15.84
2023-06-11T04:09:54.543Z,15.94
2023-06-11T04:12:59.684Z,15.90
2023-06-11T04:16:06.997Z,16.44
2023-06-11T04:19:15.628Z,15.69
2023-06-11T04:22:22.233Z,15.85
2023-06-11T04:25:27.506Z,15.49
2023-06-11T04:28:34.808Z,15.28
2023-06-11T04:31:43.288Z,15.21
2023-06-11T04:34:52.156Z,15.11
2023-06-11T04:37:57.427Z,15.29
2023-06-11T04:41:06.695Z,15.77
2023-06-11T04:44:13.701Z,15.18
2023-06-11T04:47:23.813Z,15.52
2023-06-11T04:50:33.032Z,16.92
2023-06-11T04:53:38.733Z,16.66
2023-06-11T04:56:46.242Z,16.61
2023-06-11T04:59:52.430Z,16.65
2023-06-11T05:03:03.485Z,17.34
2023-06-11T05:06:14.889Z,16.50
2023-06-11T05:09:23.218Z,16.90
2023-06-11T05:12:29.691Z,16.60
2023-06-11T05:15:35.654Z,17.52
2023-06-11T05:18:41.037Z,17.50
2023-06-11T05:21:50.782Z,17.95
2023-06-11T05:24:56.814Z,17.17
2023-06-11T05:28:04.059Z,17.76
2023-06-11T05:31:14.247Z,16.78
2023-06-11T05:34:24.381Z,17.98
2023-06-11T05:37:32.358Z,17.91
2023-06-11T05:40:38.410Z,18.01
2023-06-11T05:43:44.329Z,17.19
2023-06-11T05:46:49.608Z,17.14
2023-06-11T05:49:55.271Z,17.33
2023-06-11T05:53:03.100Z,17.86
2023-06-11T05:56:08.874Z,17.68
2023-06-11T05:59:16.751Z,19.05
2023-06-11T06:02:22.236Z,18.43
2023-06-11T06:05:27.449Z,19.58
2023-06-11T06:08:35.766Z,19.85
2023-06-11T06:11:41.117Z,20.61
2023-06-11T06:14:46.353Z,18.86
2023-06-11T06:17:51.773Z,19.67
2023-06-11T06:21:04.957Z,20.00
2023-06-11T06:24:15.069Z,20.80
2023-06-11T06:27:20.253Z,19.73
2023-06-11T06:30:25.317Z,18.82
2023-06-11T06:33:31.874Z,18.78
2023-06-11T06:36:40.289Z,19.50
2023-06-11T06:39:49.882Z,19.07
2023-06-11T06:42:55.158Z,19.19
2023-06-11T06:46:08.051Z,18.28
2023-06-11T06:49:13.192Z,17.94
2023-06-11T06:52:18.272Z,19.37
2023-06-11T06:55:26.478Z,18.56
2023-06-11T06:58:37.956Z,18.14
2023-06-11T07:01:43.601Z,19.14
2023-06-11T07:04:49.542Z,17.94
2023-06-11T07:07:56.473Z,18.00
2023-06-11T07:11:04.772Z,17.96
2023-06-11T07:14:17.280Z,17.97
2023-06-11T07:17:24.242Z,17.94
2023-06-11T07:20:29.575Z,18.10
2023-06-11T07:23:34.772Z,18.40
2023-06-11T07:26:43.850Z,18.73
2023-06-11T07:29:50.285Z,19.97
2023-06-11T07:32:56.567Z,19.95
2023-06-11T07:36:02.204Z,20.27
2023-06-11T07:39:08.655Z,19.07
2023-06-11T07:42:16.448Z,19.12
2023-06-11T07:45:23.232Z,19.74
2023-06-11T07:48:29.584Z,20.17
2023-06-11T07:51:35.096Z,20.81
2023-06-11T07:54:45.299Z,20.38
2023-06-11T07:57:53.098Z,20.83
2023-06-11T08:00:58.193Z,19.59
2023-06-11T08:04:03.317Z,20.31
2023-06-11T08:07:09.168Z,20.95
2023-06-11T08:10:14.539Z,20.32
2023-06-11T08:13:23.215Z,20.46
2023-06-11T08:16:28.742Z,20.57
2023-06-11T08:19:33.929Z,20.20
2023-06-11T08:22:40.949Z,20.27
2023-06-11T08:25:46.118Z,20.85
2023-06-11T08:28:53.745Z,21.27
2023-06-11T08:31:58.891Z,20.53
2023-06-11T08:35:04.001Z,20.12
2023-06-11T08:38:09.073Z,20.28
